createdAt,value
2024-01-07T00:01:52.093Z,6.77
2024-01-07T00:04:19.736Z,5.87
2024-01-07T00:06:48.002Z,7.53
2024-01-07T00:09:15.129Z,9.20
2024-01-07T00:11:42.335Z,3.67
2024-01-07T00:14:09.573Z,9.13
2024-01-07T00:16:36.612Z,7.60
2024-01-07T00:19:03.958Z,8.43
2024-01-07T00:21:31.109Z,6.03
2024-01-07T00:23:58.106Z,7.70
2024-01-07T00:26:24.981Z,7.00
2024-01-07T00:28:51.889Z,7.67
2024-01-07T00:31:19.060Z,8.10
2024-01-07T00:33:46.716Z,7.60
2024-01-07T00:36:13.824Z,5.90
2024-01-07T00:38:40.749Z,5.87
2024-01-07T00:41:07.752Z,5.53
2024-01-07T00:43:34.634Z,5.37
2024-01-07T00:46:01.710Z,7.27
2024-01-07T00:48:28.956Z,4.53
2024-01-07T00:50:56.516Z,5.60
2024-01-07T00:53:23.496Z,7.90
2024-01-07T00:55:50.462Z,5.40
2024-01-07T00:58:18.469Z,5.20
2024-01-07T01:00:45.642Z,6.80
2024-01-07T01:03:12.664Z,5.60
2024-01-07T01:05:40.118Z,6.33
2024-01-07T01:08:07.141Z,4.40
2024-01-07T01:10:34.142Z,3.67
2024-01-07T01:13:01.110Z,6.20
2024-01-07T01:15:28.215Z,6.37
2024-01-07T01:17:55.209Z,7.07
2024-01-07T01:20:22.129Z,7.03
2024-01-07T01:22:49.576Z,7.40
2024-01-07T01:25:16.568Z,5.80
2024-01-07T01:27:43.544Z,4.60
2024-01-07T01:30:11.312Z,5.73
2024-01-07T01:32:38.573Z,8.63
2024-01-07T01:35:06.738Z,6.67
2024-01-07T01:37:36.703Z,7.33
2024-01-07T01:40:05.521Z,7.13
2024-01-07T01:42:32.675Z,5.10
2024-01-07T01:45:02.790Z,5.13
2024-01-07T01:47:31.920Z,3.87
2024-01-07T01:50:00.048Z,4.70
2024-01-07T01:52:28.251Z,8.83
2024-01-07T01:54:55.953Z,8.00
2024-01-07T01:57:25.977Z,9.17
2024-01-07T01:59:53.073Z,6.90
2024-01-07T02:02:20.126Z,7.70
2024-01-07T02:04:47.138Z,6.73
2024-01-07T02:07:14.341Z,7.20
2024-01-07T02:09:42.646Z,5.80
2024-01-07T02:12:12.980Z,5.53
2024-01-07T02:14:40.666Z,7.33
2024-01-07T02:17:08.407Z,6.40
2024-01-07T02:19:35.539Z,3.97
2024-01-07T02:22:02.648Z,6.57
2024-01-07T02:24:29.679Z,7.87
2024-01-07T02:26:58.222Z,4.40
2024-01-07T02:29:25.959Z,3.20
2024-01-07T02:31:52.889Z,3.67
2024-01-07T02:34:20.034Z,4.13
2024-01-07T02:36:47.156Z,7.27
2024-01-07T02:39:14.103Z,5.63
2024-01-07T02:41:40.961Z,5.17
2024-01-07T02:44:10.079Z,3.43
2024-01-07T02:46:38.608Z,5.70
2024-01-07T02:49:05.627Z,6.23
2024-01-07T02:51:32.585Z,3.77
2024-01-07T02:53:59.503Z,3.83
2024-01-07T02:56:26.420Z,5.13
2024-01-07T02:58:53.374Z,4.17
2024-01-07T03:01:24.158Z,3.57
2024-01-07T03:03:52.143Z,5.10
2024-01-07T03:06:19.090Z,4.30
2024-01-07T03:08:46.082Z,4.10
2024-01-07T03:11:12.989Z,5.13
2024-01-07T03:13:41.472Z,5.87
2024-01-07T03:16:08.888Z,3.60
2024-01-07T03:18:36.056Z,5.90
2024-01-07T03:21:03.042Z,5.77
2024-01-07T03:23:29.982Z,5.03
2024-01-07T03:25:59.505Z,4.10
2024-01-07T03:28:26.417Z,9.30
2024-01-07T03:30:53.534Z,4.23
2024-01-07T03:33:20.610Z,4.23
2024-01-07T03:35:47.594Z,3.80
2024-01-07T03:38:14.508Z,5.03
2024-01-07T03:40:41.761Z,3.10
2024-01-07T03:43:08.896Z,5.10
2024-01-07T03:45:37.145Z,6.10
2024-01-07T03:48:04.301Z,5.57
2024-01-07T03:50:31.365Z,3.77
2024-01-07T03:52:58.204Z,5.40
2024-01-07T03:55:25.207Z,6.47
2024-01-07T03:57:54.647Z,6.97
2024-01-07T04:00:22.137Z,6.07
2024-01-07T04:02:48.985Z,8.73
2024-01-07T04:05:16.343Z,5.47
2024-01-07T04:07:43.344Z,6.80
2024-01-07T04:10:10.721Z,7.03
2024-01-07T04:12:38.268Z,5.47
2024-01-07T04:15:06.407Z,6.40
2024-01-07T04:17:33.371Z,5.37
2024-01-07T04:20:00.419Z,6.47
2024-01-07T04:22:27.540Z,5.83
2024-01-07T04:24:54.737Z,7.57
2024-01-07T04:27:21.849Z,6.57
2024-01-07T04:29:48.993Z,7.50
2024-01-07T04:32:16.184Z,8.93
2024-01-07T04:34:43.495Z,9.07
2024-01-07T04:37:11.823Z,5.20
2024-01-07T04:39:39.127Z,6.13
2024-01-07T04:42:07.784Z,4.67
2024-01-07T04:44:36.053Z,8.20
2024-01-07T04:47:03.179Z,5.17
2024-01-07T04:49:30.394Z,5.10
2024-01-07T04:51:57.519Z,5.57
2024-01-07T04:54:25.118Z,7.37
2024-01-07T04:56:52.253Z,7.70
2024-01-07T04:59:19.449Z,4.73
2024-01-07T05:01:46.648Z,4.57
2024-01-07T05:04:14.500Z,4.37
2024-01-07T05:06:41.926Z,7.63
2024-01-07T05:09:09.132Z,6.00
2024-01-07T05:11:41.470Z,6.30
2024-01-07T05:14:08.556Z,8.37
2024-01-07T05:16:35.608Z,5.60
2024-01-07T05:19:02.921Z,3.90
2024-01-07T05:21:30.436Z,4.63
2024-01-07T05:23:57.575Z,7.63
2024-01-07T05:26:24.692Z,7.53
2024-01-07T05:28:51.770Z,6.33
2024-01-07T05:31:20.114Z,3.80
2024-01-07T05:33:47.480Z,5.17
2024-01-07T05:36:15.051Z,54.77
2024-01-07T05:38:45.224Z,59.67
2024-01-07T05:41:12.388Z,39.43
2024-01-07T05:43:39.432Z,8.00
2024-01-07T05:46:06.797Z,10.07
2024-01-07T05:48:47.929Z,8.43
2024-01-07T05:51:16.046Z,5.80
2024-01-07T05:53:45.036Z,7.57
2024-01-07T05:56:12.797Z,5.17
2024-01-07T05:58:40.232Z,6.10
2024-01-07T06:01:10.093Z,5.73
2024-01-07T06:03:37.914Z,4.73
2024-01-07T06:06:05.787Z,9.60
2024-01-07T06:08:32.971Z,6.60
2024-01-07T06:11:00.029Z,6.43
2024-01-07T06:13:27.091Z,10.37
2024-01-07T06:15:54.589Z,16.20
2024-01-07T06:18:23.038Z,14.97
2024-01-07T06:20:50.733Z,18.60
2024-01-07T06:23:17.905Z,16.43
2024-01-07T06:25:45.084Z,18.73
2024-01-07T06:28:12.305Z,16.93
2024-01-07T06:30:39.605Z,15.93
2024-01-07T06:33:07.001Z,28.30
2024-01-07T06:35:34.263Z,24.33
2024-01-07T06:38:01.324Z,29.63
2024-01-07T06:40:28.542Z,31.90
2024-01-07T06:42:55.697Z,31.40
2024-01-07T06:45:22.885Z,21.67
2024-01-07T06:47:50.157Z,14.97
2024-01-07T06:50:17.748Z,11.57
2024-01-07T06:52:44.963Z,18.07
2024-01-07T06:55:12.275Z,15.40
2024-01-07T06:57:39.472Z,14.30
2024-01-07T07:00:08.397Z,17.30
2024-01-07T07:02:35.658Z,12.30
2024-01-07T07:05:02.805Z,15.03
2024-01-07T07:07:30.058Z,10.33
2024-01-07T07:09:57.273Z,12.17
2024-01-07T07:12:24.418Z,10.73
2024-01-07T07:14:51.555Z,10.27
2024-01-07T07:17:20.128Z,11.87
2024-01-07T07:19:48.732Z,11.97
2024-01-07T07:22:16.296Z,18.30
2024-01-07T07:24:44.203Z,13.80
2024-01-07T07:27:11.480Z,9.87
2024-01-07T07:29:38.635Z,6.87
2024-01-07T07:32:06.591Z,6.13
2024-01-07T07:34:34.345Z,3.23
2024-01-07T07:37:01.530Z,6.00
2024-01-07T07:39:28.699Z,2.77
2024-01-07T07:41:55.909Z,5.73
2024-01-07T07:44:23.097Z,7.23
2024-01-07T07:46:50.229Z,10.53
2024-01-07T07:49:18.167Z,13.17
2024-01-07T07:51:48.224Z,8.20
2024-01-07T07:54:15.539Z,9.13
2024-01-07T07:56:44.110Z,6.07
2024-01-07T07:59:11.815Z,7.23
2024-01-07T08:01:39.112Z,6.63
2024-01-07T08:04:07.110Z,9.83
2024-01-07T08:06:34.242Z,10.07
2024-01-07T08:09:01.456Z,5.53
2024-01-07T08:11:30.697Z,7.67
2024-01-07T08:13:58.787Z,3.77
2024-01-07T08:16:25.845Z,3.87
2024-01-07T08:18:53.818Z,4.60
2024-01-07T08:21:21.470Z,2.20
2024-01-07T08:23:48.727Z,4.73
2024-01-07T08:26:21.052Z,3.57
2024-01-07T08:28:49.487Z,5.23
2024-01-07T08:31:16.877Z,3.60
2024-01-07T08:33:44.252Z,4.90
2024-01-07T08:36:11.517Z,6.17
2024-01-07T08:38:38.614Z,4.77
2024-01-07T08:41:06.314Z,6.10
2024-01-07T08:43:36.394Z,9.00
2024-01-07T08:46:08.855Z,10.97
2024-01-07T08:48:36.185Z,4.30
2024-01-07T08:51:05.429Z,3.87
2024-01-07T08:53:33.997Z,3.83
2024-01-07T08:56:01.088Z,5.50
2024-01-07T08:58:28.077Z,3.13
2024-01-07T09:00:55.131Z,4.77
2024-01-07T09:03:22.182Z,3.50
2024-01-07T09:05:49.322Z,8.23
2024-01-07T09:08:18.684Z,4.70
2024-01-07T09:10:45.810Z,3.50
2024-01-07T09:13:13.090Z,2.40
2024-01-07T09:15:40.495Z,6.43
2024-01-07T09:18:09.935Z,2.83
2024-01-07T09:20:37.346Z,2.67
2024-01-07T09:23:04.476Z,5.83
2024-01-07T09:25:31.527Z,4.57
2024-01-07T09:27:59.123Z,5.10
2024-01-07T09:30:26.211Z,3.37
2024-01-07T09:32:53.258Z,7.03
2024-01-07T09:35:20.299Z,5.47
2024-01-07T09:37:47.282Z,2.80
2024-01-07T09:40:20.623Z,5.80
2024-01-07T09:42:48.135Z,3.67
2024-01-07T09:45:15.770Z,4.03
2024-01-07T09:47:48.330Z,7.70
2024-01-07T09:50:15.692Z,4.27
2024-01-07T09:52:47.838Z,4.13
2024-01-07T09:55:28.440Z,5.33
2024-01-07T09:57:55.518Z,5.83
2024-01-07T10:00:22.490Z,8.10
2024-01-07T10:02:49.720Z,7.53
2024-01-07T10:05:16.729Z,7.67
2024-01-07T10:07:43.746Z,3.77
2024-01-07T10:10:18.623Z,6.13
2024-01-07T10:12:49.377Z,4.47
2024-01-07T10:15:17.540Z,8.40
2024-01-07T10:17:44.851Z,6.13
2024-01-07T10:20:14.411Z,7.70
2024-01-07T10:22:41.623Z,7.80
2024-01-07T10:25:09.014Z,7.40
2024-01-07T10:27:37.478Z,10.33
2024-01-07T10:30:05.694Z,6.37
2024-01-07T10:32:32.662Z,6.30
2024-01-07T10:35:06.324Z,8.07
2024-01-07T10:37:35.176Z,8.93
2024-01-07T10:40:06.172Z,7.37
2024-01-07T10:42:34.025Z,6.60
2024-01-07T10:45:05.813Z,9.10
2024-01-07T10:47:39.112Z,9.27
2024-01-07T10:50:09.753Z,10.93
2024-01-07T10:52:40.699Z,7.57
2024-01-07T10:55:14.082Z,8.63
2024-01-07T10:57:46.085Z,10.60
2024-01-07T11:00:22.419Z,10.87
2024-01-07T11:03:18.997Z,10.80
2024-01-07T11:08:51.802Z,8.67
2024-01-07T11:11:25.101Z,9.00
2024-01-07T11:13:52.764Z,15.03
2024-01-07T11:16:45.255Z,7.63
2024-01-07T11:19:16.235Z,12.20
2024-01-07T11:21:43.578Z,9.23
2024-01-07T11:24:10.611Z,11.20
2024-01-07T11:26:42.113Z,10.03
2024-01-07T11:29:12.127Z,7.23
2024-01-07T11:31:45.498Z,11.97
2024-01-07T11:34:43.602Z,9.80
2024-01-07T11:37:15.052Z,9.17
2024-01-07T11:39:46.946Z,8.73
2024-01-07T11:42:14.807Z,9.37
2024-01-07T11:44:55.277Z,13.83
2024-01-07T11:47:24.860Z,7.73
2024-01-07T11:49:53.296Z,7.17
2024-01-07T11:52:21.371Z,9.97
2024-01-07T11:54:49.229Z,8.93
2024-01-07T11:57:16.445Z,8.87
2024-01-07T11:59:45.641Z,12.63
2024-01-07T12:02:13.199Z,22.30
2024-01-07T12:04:40.572Z,13.07
2024-01-07T12:07:08.655Z,14.07
2024-01-07T12:09:36.654Z,11.73
2024-01-07T12:12:06.368Z,15.60
2024-01-07T12:14:33.770Z,14.97
2024-01-07T12:17:00.686Z,21.30
2024-01-07T12:19:28.573Z,26.07
2024-01-07T12:22:08.054Z,12.50
2024-01-07T12:24:36.548Z,14.30
2024-01-07T12:27:08.419Z,18.17
2024-01-07T12:29:36.525Z,18.43
2024-01-07T12:32:07.034Z,12.67
2024-01-07T12:34:34.716Z,15.33
2024-01-07T12:37:03.570Z,11.00
2024-01-07T12:39:30.913Z,10.90
2024-01-07T12:41:58.289Z,12.83
2024-01-07T12:44:30.027Z,13.17
2024-01-07T12:46:57.572Z,9.67
2024-01-07T12:49:25.899Z,15.50
2024-01-07T12:51:53.546Z,16.50
2024-01-07T12:54:22.166Z,12.13
2024-01-07T12:56:51.455Z,18.10
2024-01-07T12:59:18.605Z,12.20
2024-01-07T13:01:45.937Z,11.40
2024-01-07T13:04:15.662Z,13.03
2024-01-07T13:06:42.840Z,18.17
2024-01-07T13:09:10.465Z,21.07
2024-01-07T13:11:38.141Z,16.97
2024-01-07T13:14:05.622Z,20.30
2024-01-07T13:16:34.346Z,18.37
2024-01-07T13:19:02.776Z,24.80
2024-01-07T13:21:30.575Z,32.53
2024-01-07T13:24:01.984Z,46.87
2024-01-07T13:26:31.083Z,60.33
2024-01-07T13:28:58.684Z,24.90
2024-01-07T13:31:26.398Z,22.30
2024-01-07T13:33:54.715Z,26.27
2024-01-07T13:36:22.026Z,30.13
2024-01-07T13:38:51.334Z,28.43
2024-01-07T13:41:18.737Z,17.87
2024-01-07T13:43:47.884Z,13.67
2024-01-07T13:46:16.421Z,18.07
2024-01-07T13:48:45.236Z,14.13
2024-01-07T13:51:12.677Z,17.60
2024-01-07T13:53:40.518Z,15.13
2024-01-07T13:56:08.999Z,19.47
2024-01-07T13:58:38.208Z,18.57
2024-01-07T14:01:06.770Z,24.70
2024-01-07T14:03:34.628Z,24.20
2024-01-07T14:06:04.678Z,19.73
2024-01-07T14:08:31.985Z,22.93
2024-01-07T14:10:59.105Z,17.60
2024-01-07T14:13:26.064Z,26.63
2024-01-07T14:15:56.391Z,31.10
2024-01-07T14:18:25.807Z,38.77
2024-01-07T14:20:55.026Z,28.13
2024-01-07T14:23:21.949Z,22.53
2024-01-07T14:25:49.930Z,17.77
2024-01-07T14:28:17.408Z,31.97
2024-01-07T14:30:44.642Z,41.37
2024-01-07T14:33:11.725Z,35.43
2024-01-07T14:35:39.097Z,30.57
2024-01-07T14:38:08.260Z,19.73
2024-01-07T14:40:37.441Z,32.40
2024-01-07T14:43:05.820Z,32.40
2024-01-07T14:45:33.099Z,39.90
2024-01-07T14:48:00.201Z,41.70
2024-01-07T14:50:33.771Z,31.07
2024-01-07T14:53:06.676Z,27.30
2024-01-07T14:55:34.052Z,33.83
2024-01-07T14:58:01.475Z,30.63
2024-01-07T15:00:28.885Z,28.70
2024-01-07T15:02:58.553Z,26.47
2024-01-07T15:05:26.664Z,37.27
2024-01-07T15:07:54.770Z,37.33
2024-01-07T15:10:22.438Z,26.70
2024-01-07T15:12:58.082Z,23.27
2024-01-07T15:15:31.483Z,28.20
2024-01-07T15:17:59.002Z,23.57
2024-01-07T15:20:29.291Z,26.33
2024-01-07T15:22:57.929Z,23.70
2024-01-07T15:25:27.865Z,21.00
2024-01-07T15:27:56.911Z,30.93
2024-01-07T15:30:23.956Z,20.77
2024-01-07T15:32:53.381Z,24.53
2024-01-07T15:35:22.026Z,27.53
2024-01-07T15:37:49.955Z,24.00
2024-01-07T15:40:17.100Z,28.63
2024-01-07T15:42:44.192Z,19.77
2024-01-07T15:45:11.601Z,24.50
2024-01-07T15:47:40.320Z,20.00
2024-01-07T15:50:08.310Z,23.07
2024-01-07T15:52:35.845Z,23.63
2024-01-07T15:55:03.813Z,31.23
2024-01-07T15:57:31.916Z,53.43
2024-01-07T16:00:02.484Z,44.57
2024-01-07T16:02:31.797Z,36.33
2024-01-07T16:04:59.949Z,27.40
2024-01-07T16:07:28.420Z,29.80
2024-01-07T16:09:55.590Z,35.73
2024-01-07T16:12:24.521Z,30.73
2024-01-07T16:14:54.187Z,31.27
2024-01-07T16:17:22.944Z,28.60
2024-01-07T16:19:53.016Z,21.40
2024-01-07T16:22:23.047Z,43.70
2024-01-07T16:24:50.344Z,69.37
2024-01-07T16:27:19.010Z,68.63
2024-01-07T16:29:46.762Z,49.07
2024-01-07T16:32:16.585Z,41.87
2024-01-07T16:34:45.547Z,38.03
2024-01-07T16:37:12.738Z,45.00
2024-01-07T16:39:40.839Z,48.00
2024-01-07T16:42:08.627Z,39.73
2024-01-07T16:44:38.006Z,21.67
2024-01-07T16:47:09.058Z,26.07
2024-01-07T16:50:19.350Z,28.77
2024-01-07T16:52:27.068Z,37.23
2024-01-07T16:54:55.974Z,35.97
2024-01-07T16:57:23.125Z,41.67
2024-01-07T16:59:53.454Z,36.00
2024-01-07T17:02:21.863Z,34.03
2024-01-07T17:04:57.087Z,34.77
2024-01-07T17:07:28.864Z,38.17
2024-01-07T17:09:56.014Z,29.17
2024-01-07T17:12:23.251Z,40.97
2024-01-07T17:14:53.250Z,37.87
2024-01-07T17:17:21.860Z,35.17
2024-01-07T17:19:49.902Z,36.20
2024-01-07T17:22:19.991Z,36.43
2024-01-07T17:24:47.763Z,52.67
2024-01-07T17:27:34.857Z,92.87
2024-01-07T17:30:02.035Z,132.33
2024-01-07T17:32:29.562Z,67.17
2024-01-07T17:34:57.736Z,44.73
2024-01-07T17:37:27.216Z,40.93
2024-01-07T17:39:57.446Z,74.90
2024-01-07T17:42:28.122Z,54.63
2024-01-07T17:44:58.819Z,37.63
2024-01-07T17:47:27.214Z,58.77
2024-01-07T17:49:55.519Z,50.93
2024-01-07T17:52:26.371Z,98.97
2024-01-07T17:55:08.120Z,111.77
2024-01-07T17:57:37.820Z,85.17
2024-01-07T18:00:12.105Z,66.27
2024-01-07T18:02:41.517Z,74.80
2024-01-07T18:05:11.125Z,72.03
2024-01-07T18:07:40.048Z,65.83
2024-01-07T18:10:12.480Z,75.57
2024-01-07T18:12:47.580Z,73.80
2024-01-07T18:15:16.605Z,50.97
2024-01-07T18:17:47.340Z,41.07
2024-01-07T18:20:16.000Z,37.03
2024-01-07T18:22:44.141Z,30.90
2024-01-07T18:25:16.081Z,11.80
2024-01-07T18:27:45.660Z,14.43
2024-01-07T18:30:15.535Z,23.13
2024-01-07T18:32:46.589Z,34.70
2024-01-07T18:35:18.986Z,21.13
2024-01-07T18:37:51.097Z,29.60
2024-01-07T18:40:22.268Z,41.43
2024-01-07T18:42:49.811Z,31.13
2024-01-07T18:45:16.956Z,53.50
2024-01-07T18:47:45.464Z,193.80
2024-01-07T18:50:13.398Z,269.87
2024-01-07T18:52:40.548Z,78.50
2024-01-07T18:55:10.388Z,38.57
2024-01-07T18:57:43.620Z,23.37
2024-01-07T19:00:14.901Z,13.97
2024-01-07T19:02:42.528Z,15.17
2024-01-07T19:05:11.696Z,21.30
2024-01-07T19:07:44.299Z,25.40
2024-01-07T19:10:12.188Z,31.10
2024-01-07T19:12:41.627Z,38.87
2024-01-07T19:15:09.612Z,33.47
2024-01-07T19:17:39.025Z,33.77
2024-01-07T19:20:07.456Z,36.77
2024-01-07T19:22:38.033Z,23.73
2024-01-07T19:25:06.140Z,25.17
2024-01-07T19:27:34.668Z,28.43
2024-01-07T19:30:07.389Z,30.10
2024-01-07T19:32:38.948Z,33.00
2024-01-07T19:35:07.024Z,25.97
2024-01-07T19:37:34.696Z,25.67
2024-01-07T19:40:04.207Z,23.37
2024-01-07T19:42:32.860Z,28.13
2024-01-07T19:45:00.282Z,22.17
2024-01-07T19:47:29.187Z,29.20
2024-01-07T19:49:56.702Z,26.20
2024-01-07T19:52:25.319Z,26.07
2024-01-07T19:54:53.761Z,21.73
2024-01-07T19:57:22.558Z,28.67
2024-01-07T19:59:50.903Z,146.87
2024-01-07T20:02:18.161Z,119.27
2024-01-07T20:04:56.516Z,53.60
2024-01-07T20:07:24.462Z,52.63
2024-01-07T20:09:53.244Z,48.90
2024-01-07T20:12:23.594Z,75.33
2024-01-07T20:14:53.029Z,71.97
2024-01-07T20:17:20.268Z,61.97
2024-01-07T20:19:50.931Z,45.07
2024-01-07T20:22:18.236Z,38.43
2024-01-07T20:24:45.277Z,29.80
2024-01-07T20:27:13.162Z,28.13
2024-01-07T20:29:45.987Z,21.53
2024-01-07T20:32:14.596Z,20.33
2024-01-07T20:34:41.954Z,18.60
2024-01-07T20:37:10.786Z,12.80
2024-01-07T20:39:39.652Z,12.87
2024-01-07T20:42:10.452Z,14.70
2024-01-07T20:44:40.962Z,19.07
2024-01-07T20:47:10.896Z,14.60
2024-01-07T20:49:39.434Z,18.10
2024-01-07T20:52:07.394Z,55.33
2024-01-07T20:54:41.798Z,34.33
2024-01-07T20:57:10.686Z,23.27
2024-01-07T20:59:42.621Z,21.43
2024-01-07T21:02:12.369Z,20.33
2024-01-07T21:04:43.486Z,20.20
2024-01-07T21:07:11.602Z,22.13
2024-01-07T21:09:41.031Z,28.27
2024-01-07T21:12:09.785Z,26.10
2024-01-07T21:14:37.381Z,21.53
2024-01-07T21:17:05.342Z,40.40
2024-01-07T21:19:32.575Z,38.03
2024-01-07T21:22:02.353Z,38.80
2024-01-07T21:24:32.572Z,39.37
2024-01-07T21:27:01.159Z,38.03
2024-01-07T21:29:29.219Z,36.00
2024-01-07T21:31:56.409Z,45.07
2024-01-07T21:34:23.531Z,48.90
2024-01-07T21:36:52.481Z,90.07
2024-01-07T21:39:19.912Z,81.60
2024-01-07T21:41:48.071Z,102.40
2024-01-07T21:44:16.802Z,85.63
2024-01-07T21:46:48.231Z,79.40
2024-01-07T21:49:16.861Z,80.83
2024-01-07T21:51:48.136Z,77.57
2024-01-07T21:54:18.594Z,76.73
2024-01-07T21:56:47.907Z,61.47
2024-01-07T21:59:16.726Z,68.30
2024-01-07T22:01:44.218Z,85.37
2024-01-07T22:04:11.377Z,91.57
2024-01-07T22:06:41.088Z,112.47
2024-01-07T22:09:08.482Z,64.20
2024-01-07T22:11:36.331Z,37.90
2024-01-07T22:14:04.485Z,43.60
2024-01-07T22:16:31.540Z,70.37
2024-01-07T22:18:58.631Z,52.93
2024-01-07T22:21:25.874Z,38.60
2024-01-07T22:23:55.288Z,31.27
2024-01-07T22:26:24.096Z,31.40
2024-01-07T22:28:54.182Z,25.20
2024-01-07T22:31:21.790Z,27.23
2024-01-07T22:33:49.174Z,30.33
2024-01-07T22:36:16.246Z,30.17
2024-01-07T22:38:43.251Z,33.30
2024-01-07T22:41:10.407Z,39.10
2024-01-07T22:43:38.699Z,33.77
2024-01-07T22:46:06.498Z,35.60
2024-01-07T22:48:35.879Z,45.57
2024-01-07T22:51:03.175Z,50.17
2024-01-07T22:53:31.878Z,43.27
2024-01-07T22:55:58.892Z,38.03
2024-01-07T22:58:25.972Z,48.60
2024-01-07T23:00:53.743Z,37.07
2024-01-07T23:03:21.911Z,32.63
2024-01-07T23:05:49.476Z,34.73
2024-01-07T23:08:18.085Z,28.67
2024-01-07T23:10:45.361Z,25.63
2024-01-07T23:13:12.399Z,25.60
2024-01-07T23:15:39.374Z,22.83
2024-01-07T23:18:06.851Z,23.17
2024-01-07T23:20:35.705Z,26.07
2024-01-07T23:23:02.958Z,16.07
2024-01-07T23:25:30.061Z,12.20
2024-01-07T23:27:57.231Z,16.87
2024-01-07T23:30:24.417Z,26.80
2024-01-07T23:32:52.304Z,17.77
2024-01-07T23:35:19.362Z,19.67
2024-01-07T23:37:46.350Z,22.10
2024-01-07T23:40:13.668Z,22.13
2024-01-07T23:42:40.734Z,21.07
2024-01-07T23:45:08.376Z,24.40
2024-01-07T23:47:38.574Z,15.70
2024-01-07T23:50:08.335Z,15.97
2024-01-07T23:52:35.345Z,14.30
2024-01-07T23:55:02.295Z,14.67
2024-01-07T23:57:29.242Z,12.90
2024-01-07T23:59:56.480Z,11.80
